Nippon Maru — 3FDA7 — position and weather

sailwx.info

Track history (hours):
 
Tides and Currents Weather Stations Pressure Air Temp Water Temp Dewpoint Dewpoint Depression Visibility Wind Speed Wind Dir Waves Ship Positions

Nippon Maru

Last reported at 2016-Aug-27 11:26 UTC. Time now 2016-Sep-27 13:53 UTC.
Position S 26°40' E 153°25'.
Warning: this ship's position is 31 days out of date.

Length 190 m; draft 11.6 m.

Type: Cargo ship. MMSI: 353814000.

Date/timePositionNaut miles runAvg speedWind from/ knotsBaromVisibWave heightAir tempDewpointWater temp
2016-Aug-27 11:26S 26°40' E 153°25'1112.2
2016-Aug-27 10:33S 26°42' E 153°13'9 8.5
2016-Aug-27 09:33S 26°50' E 153°09'1312.9
2016-Aug-27 08:33S 27°02' E 153°15'1111.1
2016-Aug-27 07:33S 27°12' E 153°21'1111.1
2016-Aug-27 06:33S 27°20' E 153°12'4 2.1
2016-Aug-27 04:32S 27°23' E 153°10'0 0.0
2016-Aug-27 03:32S 27°23' E 153°10'0 0.0
2016-Aug-27 02:32S 27°23' E 153°10'0 0.0
2016-Aug-27 01:32S 27°23' E 153°10'0 0.0
2016-Aug-27 00:32S 27°23' E 153°10'0 0.0
2016-Aug-26 23:32S 27°23' E 153°10'0 0.0
2016-Aug-26 22:32S 27°23' E 153°10'0 0.0
2016-Aug-26 21:32S 27°23' E 153°10'0 0.0
2016-Aug-26 20:32S 27°23' E 153°10'0 0.0
2016-Aug-26 19:32S 27°23' E 153°10'0 0.0
2016-Aug-26 18:32S 27°23' E 153°10'0 0.0
2016-Aug-26 17:32S 27°23' E 153°10'0 0.0
2016-Aug-26 16:32S 27°23' E 153°10'0 0.0
2016-Aug-26 15:32S 27°23' E 153°10'0 0.0
2016-Aug-26 14:29S 27°23' E 153°10'0 0.0
2016-Aug-26 13:32S 27°23' E 153°10'0 0.0
2016-Aug-26 12:32S 27°23' E 153°10'0 0.0
2016-Aug-26 11:32S 27°23' E 153°10'0 0.0
2016-Aug-26 10:32S 27°23' E 153°10'0 0.0
2016-Aug-26 09:32S 27°23' E 153°10'0 0.0
2016-Aug-26 08:32S 27°23' E 153°10'0 0.0
2016-Aug-26 07:32S 27°23' E 153°10'0 0.0
2016-Aug-26 06:32S 27°23' E 153°10'5 2.5
2016-Aug-26 04:33S 27°19' E 153°12'1010.3
2016-Aug-26 03:34S 27°11' E 153°19'1010.1
2016-Aug-26 02:34S 27°01' E 153°15'1212.2
2016-Aug-26 01:34S 26°50' E 153°09'10 9.4
2016-Aug-26 00:31S 26°42' E 153°15'8 8.2
2016-Aug-25 23:33S 26°40' E 153°24'  
Track history (hours):
 
Tides and Currents Weather Stations Pressure Air Temp Water Temp Dewpoint Dewpoint Depression Visibility Wind Speed Wind Dir Waves Ship Positions

Nippon Maru

Last reported at 2016-Aug-27 11:26 UTC. Time now 2016-Sep-27 13:53 UTC.
Position S 26°40' E 153°25'.
Warning: this ship's position is 31 days out of date.

Length 190 m; draft 11.6 m.

Type: Cargo ship. MMSI: 353814000.

Date/timePositionNaut miles runAvg speedWind from/ knotsBaromVisibWave heightAir tempDewpointWater temp
2016-Aug-27 11:26S 26°40' E 153°25'1112.2
2016-Aug-27 10:33S 26°42' E 153°13'9 8.5
2016-Aug-27 09:33S 26°50' E 153°09'1312.9
2016-Aug-27 08:33S 27°02' E 153°15'1111.1
2016-Aug-27 07:33S 27°12' E 153°21'1111.1
2016-Aug-27 06:33S 27°20' E 153°12'4 2.1
2016-Aug-27 04:32S 27°23' E 153°10'0 0.0
2016-Aug-27 03:32S 27°23' E 153°10'0 0.0
2016-Aug-27 02:32S 27°23' E 153°10'0 0.0
2016-Aug-27 01:32S 27°23' E 153°10'0 0.0
2016-Aug-27 00:32S 27°23' E 153°10'0 0.0
2016-Aug-26 23:32S 27°23' E 153°10'0 0.0
2016-Aug-26 22:32S 27°23' E 153°10'0 0.0
2016-Aug-26 21:32S 27°23' E 153°10'0 0.0
2016-Aug-26 20:32S 27°23' E 153°10'0 0.0
2016-Aug-26 19:32S 27°23' E 153°10'0 0.0
2016-Aug-26 18:32S 27°23' E 153°10'0 0.0
2016-Aug-26 17:32S 27°23' E 153°10'0 0.0
2016-Aug-26 16:32S 27°23' E 153°10'0 0.0
2016-Aug-26 15:32S 27°23' E 153°10'0 0.0
2016-Aug-26 14:29S 27°23' E 153°10'0 0.0
2016-Aug-26 13:32S 27°23' E 153°10'0 0.0
2016-Aug-26 12:32S 27°23' E 153°10'0 0.0
2016-Aug-26 11:32S 27°23' E 153°10'0 0.0
2016-Aug-26 10:32S 27°23' E 153°10'0 0.0
2016-Aug-26 09:32S 27°23' E 153°10'0 0.0
2016-Aug-26 08:32S 27°23' E 153°10'0 0.0
2016-Aug-26 07:32S 27°23' E 153°10'0 0.0
2016-Aug-26 06:32S 27°23' E 153°10'5 2.5
2016-Aug-26 04:33S 27°19' E 153°12'1010.3
2016-Aug-26 03:34S 27°11' E 153°19'1010.1
2016-Aug-26 02:34S 27°01' E 153°15'1212.2
2016-Aug-26 01:34S 26°50' E 153°09'10 9.4
2016-Aug-26 00:31S 26°42' E 153°15'8 8.2
2016-Aug-25 23:33S 26°40' E 153°24'  

Dump ship's entire track history